Time;durP1;ratioP1;P1;durP2;ratioP2;P2;SDS_P1;SDS_P2;PMS_P1;PMS_P2;Temp;Humidity;BMP_temperature;BMP_pressure;BME280_temperature;BME280_humidity;BME280_pressure;Samples;Min_cycle;Max_cycle;Signal;HPM_P1;HPM_P2
2022/09/10 00:02:05;;;;;;;5.03;3.12;;;;;;;12.97;63.29;101109.30;1715276;81;21023;-73
2022/09/10 00:04:32;;;;;;;5.08;2.85;;;;;;;13.00;63.53;101118.17;1719133;82;21097;-73
2022/09/10 00:06:59;;;;;;;5.20;2.67;;;;;;;13.04;63.67;101116.58;1719663;82;21576;-73
2022/09/10 00:09:26;;;;;;;5.83;2.50;;;;;;;13.04;64.02;101120.06;1716430;82;21062;-72
2022/09/10 00:11:52;;;;;;;6.75;3.02;;;;;;;12.98;64.13;101115.73;1713279;82;21608;-72
2022/09/10 00:14:21;;;;;;;5.33;2.50;;;;;;;12.93;64.48;101114.88;1747928;80;20999;-73
2022/09/10 00:16:49;;;;;;;5.22;2.50;;;;;;;12.88;64.92;101107.09;1751987;82;21615;-72
2022/09/10 00:19:15;;;;;;;4.37;2.67;;;;;;;12.82;65.41;101100.08;1715793;81;21321;-73
2022/09/10 00:21:43;;;;;;;4.62;2.70;;;;;;;12.75;65.92;101091.99;1721506;82;21113;-73
2022/09/10 00:24:09;;;;;;;4.85;3.00;;;;;;;12.70;66.04;101102.16;1732970;82;21572;-73
2022/09/10 00:26:38;;;;;;;6.47;2.75;;;;;;;12.68;66.44;101103.74;1733373;82;21027;-74
2022/09/10 00:29:08;;;;;;;5.15;3.02;;;;;;;12.63;66.52;101110.39;1733588;82;21617;-74
2022/09/10 00:31:34;;;;;;;5.08;2.92;;;;;;;12.59;66.72;101106.62;1751732;80;21240;-73
2022/09/10 00:34:01;;;;;;;5.87;3.12;;;;;;;12.56;67.09;101102.30;1752278;81;21521;-73
2022/09/10 00:36:31;;;;;;;5.22;2.75;;;;;;;12.53;67.20;101103.62;1752064;80;21023;-73
2022/09/10 00:39:01;;;;;;;7.67;2.70;;;;;;;12.53;67.52;101102.28;1721489;80;20959;-73
2022/09/10 00:41:28;;;;;;;5.55;2.90;;;;;;;12.54;67.66;101090.52;1743431;82;21065;-73
2022/09/10 00:44:03;;;;;;;5.35;2.90;;;;;;;12.60;67.68;101091.34;1722803;83;21825;-73
2022/09/10 00:46:38;;;;;;;6.42;2.72;;;;;;;12.65;67.67;101092.20;1722208;83;21488;-74
2022/09/10 00:49:34;;;;;;;5.08;2.77;;;;;;;12.65;67.57;101089.52;1722028;83;20958;-73
2022/09/10 00:52:01;;;;;;;5.03;2.75;;;;;;;12.62;67.52;101086.55;1756606;80;20947;-73
2022/09/10 00:54:28;;;;;;;5.45;2.83;;;;;;;12.58;67.60;101081.43;1783045;80;21021;-74
2022/09/10 00:56:58;;;;;;;5.70;3.00;;;;;;;12.53;67.71;101078.70;1783216;80;21572;-74
2022/09/10 00:59:25;;;;;;;6.20;3.12;;;;;;;12.53;67.85;101078.70;1782985;80;21105;-73
2022/09/10 01:01:52;;;;;;;7.15;3.20;;;;;;;12.50;67.97;101078.67;1783397;80;21565;-73
2022/09/10 01:04:19;;;;;;;5.78;3.30;;;;;;;12.47;68.17;101077.87;1783150;80;21097;-74
2022/09/10 01:06:46;;;;;;;7.05;3.27;;;;;;;12.50;68.23;101071.98;1783181;80;20947;-74
2022/09/10 01:09:13;;;;;;;4.90;2.90;;;;;;;12.53;68.31;101074.14;1783261;80;21110;-74
2022/09/10 01:12:31;;;;;;;5.87;2.80;;;;;;;12.56;68.29;101076.84;1782955;80;21049;-74
2022/09/10 01:15:21;;;;;;;5.85;2.60;;;;;;;12.54;68.37;101070.95;1783105;80;20994;-74
2022/09/10 01:18:14;;;;;;;5.42;3.45;;;;;;;12.52;68.36;101069.86;1783210;80;20967;-73
2022/09/10 01:21:13;;;;;;;4.17;2.52;;;;;;;12.57;68.34;101074.44;1766114;80;27632;-74
2022/09/10 01:24:05;;;;;;;5.33;2.98;;;;;;;12.60;68.39;101076.60;1704367;84;21520;-74
2022/09/10 01:26:53;;;;;;;5.30;2.80;;;;;;;12.62;68.44;101074.48;1721779;81;27499;-74
2022/09/10 01:29:58;;;;;;;5.08;2.85;;;;;;;12.68;68.42;101071.58;1722571;82;21033;-74
2022/09/10 01:33:01;;;;;;;5.67;2.95;;;;;;;12.70;68.29;101077.20;1722146;81;21690;-73
2022/09/10 01:35:50;;;;;;;4.85;2.87;;;;;;;12.65;68.38;101068.61;1701527;82;21052;-74
2022/09/10 01:38:26;;;;;;;7.83;3.20;;;;;;;12.56;68.45;101072.29;1722389;82;21812;-74
2022/09/10 01:40:53;;;;;;;5.47;3.08;;;;;;;12.52;68.57;101067.72;1744600;81;21049;-74
2022/09/10 01:43:21;;;;;;;5.00;3.10;;;;;;;12.49;68.79;101072.25;1712009;82;21031;-74
2022/09/10 01:45:59;;;;;;;5.60;3.08;;;;;;;12.45;68.85;101069.27;1725217;81;21526;-74
2022/09/10 01:48:38;;;;;;;4.83;2.70;;;;;;;12.44;68.92;101065.80;1733403;82;20995;-73
2022/09/10 01:51:16;;;;;;;5.17;3.10;;;;;;;12.50;69.06;101076.53;1732090;81;21579;-73
2022/09/10 01:54:32;;;;;;;6.97;3.35;;;;;;;12.48;69.13;101073.32;1731670;81;21620;-74
2022/09/10 01:57:40;;;;;;;6.00;3.30;;;;;;;12.47;69.11;101073.86;1722419;82;20967;-74
2022/09/10 02:00:12;;;;;;;4.45;2.40;;;;;;;12.49;69.27;101067.69;1751934;80;21047;-75
2022/09/10 02:03:03;;;;;;;4.83;2.87;;;;;;;12.51;69.36;101073.61;1752364;82;21085;-73
2022/09/10 02:05:31;;;;;;;4.62;2.70;;;;;;;12.47;69.40;101060.97;1722096;82;21158;-74
2022/09/10 02:08:04;;;;;;;5.72;2.70;;;;;;;12.46;69.47;101063.38;1733308;81;21478;-73
2022/09/10 02:10:32;;;;;;;5.28;3.08;;;;;;;12.44;69.64;101062.31;1733242;82;21046;-74
2022/09/10 02:12:59;;;;;;;5.17;2.98;;;;;;;12.43;69.73;101056.66;1752320;80;21542;-74
2022/09/10 02:15:28;;;;;;;5.92;3.10;;;;;;;12.40;69.91;101053.15;1747324;80;21145;-73
2022/09/10 02:17:59;;;;;;;4.97;2.85;;;;;;;12.40;70.10;101051.81;1750078;80;21225;-74
2022/09/10 02:20:26;;;;;;;4.78;2.90;;;;;;;12.41;70.18;101055.59;1752010;80;21043;-74
2022/09/10 02:22:55;;;;;;;4.90;2.77;;;;;;;12.45;70.29;101055.88;1706689;81;20978;-73
2022/09/10 02:25:25;;;;;;;6.37;3.20;;;;;;;12.49;70.32;101056.17;1752156;80;22117;-73
2022/09/10 02:27:55;;;;;;;4.65;2.85;;;;;;;12.54;70.36;101053.54;1747771;81;21030;-72
2022/09/10 02:30:23;;;;;;;6.03;3.22;;;;;;;12.58;70.33;101053.30;1733508;81;21159;-74
2022/09/10 02:32:51;;;;;;;5.22;2.60;;;;;;;12.53;70.33;101047.34;1752146;80;21498;-72
2022/09/10 02:35:17;;;;;;;4.90;2.90;;;;;;;12.50;70.41;101042.50;1752186;80;21040;-71
2022/09/10 02:37:46;;;;;;;5.28;2.47;;;;;;;12.48;70.52;101047.87;1752056;80;20945;-71
2022/09/10 02:40:14;;;;;;;6.00;3.08;;;;;;;12.45;70.61;101045.16;1752162;82;21571;-72
2022/09/10 02:42:45;;;;;;;5.10;3.15;;;;;;;12.46;70.75;101043.29;1734302;79;21166;-72
2022/09/10 02:45:09;;;;;;;5.20;2.90;;;;;;;12.46;70.85;101037.39;1740179;82;21009;-72
2022/09/10 02:47:36;;;;;;;3.92;2.50;;;;;;;12.46;70.81;101044.09;1743914;80;21035;-72
2022/09/10 02:50:03;;;;;;;5.25;3.02;;;;;;;12.47;70.90;101033.67;1732522;80;21086;-73
2022/09/10 02:52:30;;;;;;;5.37;2.65;;;;;;;12.50;70.99;101039.83;1741445;80;20964;-72
2022/09/10 02:54:56;;;;;;;5.20;2.83;;;;;;;12.51;71.08;101029.94;1737988;80;22532;-71
2022/09/10 02:57:23;;;;;;;5.78;2.90;;;;;;;12.51;71.00;101027.26;1738046;80;21060;-71
2022/09/10 02:59:49;;;;;;;5.33;3.22;;;;;;;12.51;71.04;101024.58;1752072;82;20943;-72
2022/09/10 03:02:16;;;;;;;6.42;2.72;;;;;;;12.51;71.14;101017.34;1711728;82;21482;-72
2022/09/10 03:04:42;;;;;;;6.33;3.20;;;;;;;12.49;71.29;101011.97;1704391;83;21098;-72
2022/09/10 03:07:10;;;;;;;5.15;3.05;;;;;;;12.49;71.32;101009.28;1703449;83;21537;-72
2022/09/10 03:09:39;;;;;;;5.37;3.05;;;;;;;12.47;71.53;101010.06;1704703;82;21086;-72
2022/09/10 03:12:06;;;;;;;4.22;2.80;;;;;;;12.45;71.67;101011.67;1751865;81;22138;-72
2022/09/10 03:14:33;;;;;;;4.03;2.50;;;;;;;12.46;71.79;101009.27;1717838;82;21097;-72
2022/09/10 03:17:01;;;;;;;4.65;3.15;;;;;;;12.49;71.81;101003.39;1721709;81;21022;-72
2022/09/10 03:19:30;;;;;;;3.60;2.20;;;;;;;12.54;71.85;101009.33;1718873;82;21559;-72
2022/09/10 03:21:58;;;;;;;6.35;2.98;;;;;;;12.60;71.87;101007.77;1721095;82;20999;-71
2022/09/10 03:24:25;;;;;;;4.00;2.65;;;;;;;12.60;71.80;101007.77;1720001;82;21526;-71
2022/09/10 03:26:52;;;;;;;4.58;2.47;;;;;;;12.61;71.77;101001.86;1716656;82;21058;-73
2022/09/10 03:29:21;;;;;;;5.55;2.98;;;;;;;12.61;71.75;101003.20;1737358;82;21135;-71
2022/09/10 03:31:50;;;;;;;4.70;2.67;;;;;;;12.59;71.84;101006.66;1731883;82;21219;-72
2022/09/10 03:34:18;;;;;;;4.47;2.83;;;;;;;12.58;71.88;100998.36;1737730;82;21183;-71
2022/09/10 03:36:48;;;;;;;4.55;2.90;;;;;;;12.59;71.98;100999.97;1734908;82;21061;-71
2022/09/10 05:39:11;;;;;;;3.85;2.55;;;;;;;12.55;72.67;100957.34;1732826;82;21000;-72
2022/09/10 05:41:39;;;;;;;4.10;2.92;;;;;;;12.52;72.56;100956.52;1751199;81;21121;-72
2022/09/10 05:44:17;;;;;;;4.50;2.58;;;;;;;12.50;72.55;100949.27;1721583;83;21321;-73
2022/09/10 05:46:47;;;;;;;3.90;2.50;;;;;;;12.43;72.55;100952.98;1721354;82;21061;-73
2022/09/10 05:49:15;;;;;;;3.17;2.17;;;;;;;12.46;72.55;100949.52;1722027;83;21026;-73
2022/09/10 05:51:45;;;;;;;4.15;2.67;;;;;;;12.47;72.53;100955.14;1731898;82;20974;-70
2022/09/10 05:54:12;;;;;;;3.85;2.60;;;;;;;12.49;72.50;100963.20;1737757;81;21647;-74
2022/09/10 05:56:39;;;;;;;3.42;2.37;;;;;;;12.52;72.47;100964.56;1741479;82;21227;-71
2022/09/10 05:59:06;;;;;;;4.50;3.35;;;;;;;12.53;72.41;100950.09;1751706;82;21113;-73
2022/09/10 06:01:34;;;;;;;3.60;2.60;;;;;;;12.52;72.31;100955.18;1750550;82;21046;-71
2022/09/10 06:04:03;;;;;;;3.42;2.65;;;;;;;12.52;72.30;100955.18;1750763;81;20998;-71
2022/09/10 06:06:30;;;;;;;3.70;2.62;;;;;;;12.54;72.30;100951.72;1752022;82;21109;-72
2022/09/10 06:08:59;;;;;;;4.00;2.50;;;;;;;12.59;72.29;100953.07;1752303;81;21116;-72
2022/09/10 06:11:33;;;;;;;5.00;2.60;;;;;;;12.58;72.19;100948.78;1751048;82;21066;-71
2022/09/10 06:14:00;;;;;;;3.50;2.60;;;;;;;12.55;72.10;100962.16;1752075;82;21006;-71
2022/09/10 06:16:27;;;;;;;4.35;2.92;;;;;;;12.55;72.10;100954.66;1734085;80;21124;-71
2022/09/10 06:18:56;;;;;;;4.20;2.90;;;;;;;12.59;72.08;100965.13;1722144;83;21029;-72
2022/09/10 06:21:23;;;;;;;4.42;3.05;;;;;;;12.60;71.93;100964.05;1722057;83;21560;-72
2022/09/10 06:23:54;;;;;;;4.35;2.62;;;;;;;12.61;71.88;100974.53;1722267;83;21537;-72
2022/09/10 06:26:26;;;;;;;4.30;2.90;;;;;;;12.67;71.88;100968.13;1717868;83;21164;-71
2022/09/10 06:28:59;;;;;;;3.67;2.50;;;;;;;12.67;71.71;100963.31;1723835;82;22833;-72
2022/09/10 06:31:28;;;;;;;4.75;3.25;;;;;;;12.68;71.68;100970.27;1741481;82;21121;-71
2022/09/10 06:34:27;;;;;;;4.67;3.60;;;;;;;12.69;71.66;100971.88;1734096;80;21144;-72
2022/09/10 06:36:57;;;;;;;3.90;3.00;;;;;;;12.64;71.57;100968.65;1736862;80;21010;-70
2022/09/10 06:39:23;;;;;;;4.62;3.40;;;;;;;12.64;71.73;100962.48;1717681;80;21554;-71
2022/09/10 06:41:52;;;;;;;4.58;2.98;;;;;;;12.63;71.77;100962.20;1732788;80;22581;-72
2022/09/10 06:44:30;;;;;;;4.50;3.42;;;;;;;12.67;71.85;100961.44;1693832;81;21565;-73
2022/09/10 06:47:01;;;;;;;4.83;3.50;;;;;;;12.68;71.70;100956.88;1740940;80;22131;-72
2022/09/10 06:49:30;;;;;;;4.55;3.10;;;;;;;12.62;71.58;100954.69;1752215;81;21025;-72
2022/09/10 06:51:56;;;;;;;4.83;3.37;;;;;;;12.61;71.70;100958.45;1743032;80;20999;-72
2022/09/10 06:54:25;;;;;;;5.55;3.30;;;;;;;12.64;71.68;100950.43;1732703;80;21604;-72
2022/09/10 06:56:53;;;;;;;4.95;3.55;;;;;;;12.64;71.67;100959.81;1735553;80;21066;-71
2022/09/10 06:59:20;;;;;;;4.87;3.87;;;;;;;12.64;71.56;100953.11;1739194;82;21894;-71
2022/09/10 07:01:48;;;;;;;4.97;3.70;;;;;;;12.64;71.60;100953.11;1736127;80;21588;-71
2022/09/10 07:04:16;;;;;;;4.85;3.50;;;;;;;12.62;71.48;100953.89;1738220;80;21528;-71
2022/09/10 07:06:44;;;;;;;4.33;3.25;;;;;;;12.60;71.53;100946.13;1737620;81;21113;-71
2022/09/10 07:09:13;;;;;;;4.78;3.62;;;;;;;12.64;71.55;100953.11;1722457;81;21086;-72
2022/09/10 07:11:42;;;;;;;4.78;3.83;;;;;;;12.61;71.46;100948.27;1703785;84;21428;-72
2022/09/10 07:14:11;;;;;;;5.28;3.70;;;;;;;12.58;71.42;100945.56;1722352;82;21569;-72
2022/09/10 07:16:40;;;;;;;6.50;4.20;;;;;;;12.58;71.40;100944.77;1722862;80;21106;-74
2022/09/10 07:19:07;;;;;;;5.25;4.00;;;;;;;12.58;71.49;100952.80;1732185;80;21015;-72
2022/09/10 07:21:36;;;;;;;5.42;4.28;;;;;;;12.60;71.42;100952.00;1736139;80;21153;-71
2022/09/10 07:24:06;;;;;;;5.50;4.20;;;;;;;12.61;71.42;100955.77;1739269;80;21544;-71
2022/09/10 07:26:34;;;;;;;5.62;4.40;;;;;;;12.64;71.46;100951.77;1737968;82;21632;-71
2022/09/10 07:29:03;;;;;;;5.17;4.20;;;;;;;12.60;71.37;100950.66;1719023;82;21536;-72
2022/09/10 07:31:32;;;;;;;5.85;4.35;;;;;;;12.61;71.33;100954.97;1716492;81;21625;-71
2022/09/10 07:34:01;;;;;;;5.60;4.35;;;;;;;12.62;71.33;100954.69;1722402;82;21078;-71
2022/09/10 07:36:28;;;;;;;5.60;4.78;;;;;;;12.66;71.30;100960.34;1735149;82;21165;-71
2022/09/10 07:39:00;;;;;;;5.87;5.03;;;;;;;12.65;71.27;100954.17;1729391;82;21113;-71
2022/09/10 07:41:28;;;;;;;5.60;4.22;;;;;;;12.61;71.22;100949.61;1733284;82;21541;-71
2022/09/10 07:43:57;;;;;;;5.58;4.90;;;;;;;12.58;71.42;100946.91;1734248;82;21101;-72
2022/09/10 07:46:27;;;;;;;6.83;5.40;;;;;;;12.55;71.47;100944.75;1739462;81;21032;-71
2022/09/10 07:48:59;;;;;;;5.77;4.80;;;;;;;12.58;71.54;100952.27;1730524;82;21341;-71
2022/09/10 07:51:28;;;;;;;5.73;4.53;;;;;;;12.64;71.51;100951.77;1735282;82;21113;-72
2022/09/10 07:53:58;;;;;;;6.07;4.80;;;;;;;12.69;71.47;100954.45;1735318;80;22138;-71
2022/09/10 07:56:30;;;;;;;7.43;4.80;;;;;;;12.72;71.43;100956.61;1738531;80;21212;-72
2022/09/10 07:58:56;;;;;;;5.33;4.20;;;;;;;12.75;71.31;100949.94;1738987;81;21285;-70
2022/09/10 08:01:25;;;;;;;6.37;4.70;;;;;;;12.77;71.21;100948.61;1743640;82;21245;-71
2022/09/10 08:03:57;;;;;;;5.92;4.90;;;;;;;12.75;70.99;100948.05;1738867;82;21242;-71
2022/09/10 08:06:25;;;;;;;6.70;5.15;;;;;;;12.67;70.94;100945.89;1722394;83;21085;-73
2022/09/10 08:08:52;;;;;;;6.03;5.00;;;;;;;12.65;71.06;100946.67;1722058;83;21140;-70
2022/09/10 08:11:20;;;;;;;6.70;5.30;;;;;;;12.66;71.09;100945.59;1720619;83;21746;-70
2022/09/10 08:13:51;;;;;;;7.50;5.30;;;;;;;12.66;71.19;100936.22;1721675;82;21578;-71
2022/09/10 08:16:22;;;;;;;7.42;5.42;;;;;;;12.61;71.13;100932.19;1722286;82;21567;-71
2022/09/10 08:18:54;;;;;;;7.30;5.73;;;;;;;12.57;71.17;100930.56;1722294;83;21038;-71
2022/09/10 08:21:21;;;;;;;7.23;5.27;;;;;;;12.55;71.17;100925.19;1693800;83;21280;-72
2022/09/10 08:23:50;;;;;;;5.78;4.97;;;;;;;12.61;71.33;100914.77;1722314;83;21536;-71
2022/09/10 08:26:17;;;;;;;6.50;5.40;;;;;;;12.60;71.15;100911.80;1722554;82;21184;-71
2022/09/10 08:28:45;;;;;;;7.37;5.50;;;;;;;12.57;71.12;100921.70;1722318;83;21352;-71
2022/09/10 08:31:12;;;;;;;6.08;4.97;;;;;;;12.55;71.23;100925.99;1722310;83;21291;-72
2022/09/10 09:18:24;;;;;;;6.47;5.00;;;;;;;12.84;71.12;100880.81;1815904;78;27148;-71
2022/09/10 09:20:59;;;;;;;6.47;5.42;;;;;;;12.78;71.19;100879.72;1790081;78;21071;-71
2022/09/10 09:23:50;;;;;;;5.70;5.10;;;;;;;12.78;71.21;100885.08;1790713;80;21771;-72
2022/09/10 09:26:19;;;;;;;5.47;4.20;;;;;;;12.80;71.24;100881.58;1791241;78;21340;-70
2022/09/10 09:28:58;;;;;;;6.90;5.40;;;;;;;12.82;71.26;100878.92;1790235;78;21287;-69
2022/09/10 09:31:30;;;;;;;6.40;5.27;;;;;;;12.83;71.30;100881.06;1751901;78;21193;-69
2022/09/10 09:34:28;;;;;;;5.63;5.03;;;;;;;12.83;71.31;100881.06;1791477;78;21389;-70
2022/09/10 09:36:56;;;;;;;5.83;4.50;;;;;;;12.82;71.34;100881.60;1786855;78;21566;-70
2022/09/10 09:39:38;;;;;;;6.40;4.70;;;;;;;12.85;71.37;100879.73;1792671;78;21158;-69
2022/09/10 09:42:50;;;;;;;5.03;3.93;;;;;;;12.85;71.38;100881.07;1758656;80;21311;-70
2022/09/10 09:45:29;;;;;;;5.10;4.20;;;;;;;12.90;71.43;100880.30;1789804;78;21186;-71
2022/09/10 09:47:55;;;;;;;5.43;4.53;;;;;;;12.93;71.35;100877.60;1790222;80;21199;-71
2022/09/10 09:50:22;;;;;;;5.40;4.43;;;;;;;12.93;71.38;100877.06;1791440;78;21309;-68
2022/09/10 09:52:53;;;;;;;5.43;4.30;;;;;;;12.95;71.35;100869.57;1791921;78;21787;-71
2022/09/10 09:55:46;;;;;;;4.85;3.80;;;;;;;12.96;71.33;100871.71;1790921;78;21243;-70
2022/09/10 09:58:25;;;;;;;6.43;4.40;;;;;;;13.01;71.38;100869.05;1790378;78;21097;-70
2022/09/10 10:01:07;;;;;;;4.93;3.90;;;;;;;13.05;71.38;100862.08;1791557;78;21216;-71
2022/09/10 10:03:52;;;;;;;6.33;4.43;;;;;;;13.06;71.32;100861.00;1790351;80;21254;-70
2022/09/10 10:06:28;;;;;;;5.43;3.77;;;;;;;13.03;71.26;100857.52;1789892;80;21251;-70
2022/09/10 10:09:04;;;;;;;4.87;4.00;;;;;;;13.03;71.48;100852.14;1789784;80;21245;-70
2022/09/10 10:11:45;;;;;;;5.20;4.00;;;;;;;13.02;71.41;100849.20;1790526;78;21236;-69
2022/09/10 10:14:38;;;;;;;4.83;3.83;;;;;;;13.04;71.50;100848.42;1792249;78;21274;-70
2022/09/10 10:17:35;;;;;;;;;;;;;;;13.05;71.64;100838.75;1792782;79;21731;-69
2022/09/10 10:20:15;;;;;;;5.93;4.43;;;;;;;13.02;71.69;100839.82;1760323;80;20216;-70
2022/09/10 10:22:44;;;;;;;4.80;4.23;;;;;;;12.91;71.68;100835.78;1711865;83;21334;-71
2022/09/10 10:25:37;;;;;;;4.60;4.03;;;;;;;12.91;71.85;100836.33;1710707;82;21212;-70
2022/09/10 10:28:24;;;;;;;5.67;4.13;;;;;;;12.92;71.84;100832.56;1716942;83;21265;-70
2022/09/10 10:30:58;;;;;;;6.20;4.67;;;;;;;13.03;71.96;100836.06;1772294;80;21512;-70
2022/09/10 10:33:30;;;;;;;5.60;4.53;;;;;;;13.07;71.93;100838.50;1768433;80;21196;-71
2022/09/10 10:36:11;;;;;;;6.20;5.23;;;;;;;13.11;71.85;100836.89;1766958;80;21103;-70
2022/09/10 10:38:54;;;;;;;7.00;5.10;;;;;;;13.14;71.84;100832.34;1761378;80;21278;-70
2022/09/10 10:41:52;;;;;;;6.07;5.07;;;;;;;13.18;71.87;100828.04;1753665;80;21360;-70
2022/09/10 10:44:24;;;;;;;7.27;5.47;;;;;;;13.19;71.82;100826.16;1708812;82;21337;-70
2022/09/10 10:47:11;;;;;;;7.60;6.00;;;;;;;13.17;71.76;100817.59;1712235;83;21584;-71
2022/09/10 10:49:58;;;;;;;6.30;5.40;;;;;;;13.18;71.86;100815.97;1698201;83;21348;-71
2022/09/10 10:53:06;;;;;;;6.57;5.47;;;;;;;13.20;71.85;100819.20;1661446;84;21640;-71
2022/09/10 10:55:57;;;;;;;7.03;6.33;;;;;;;13.22;71.73;100811.67;1710398;83;21284;-71
2022/09/10 10:59:06;;;;;;;7.40;6.33;;;;;;;13.26;71.82;100813.31;1710247;83;21317;-70
2022/09/10 11:01:52;;;;;;;7.73;6.40;;;;;;;13.33;71.83;100803.94;1714596;83;21590;-72
2022/09/10 11:04:49;;;;;;;6.80;6.00;;;;;;;13.29;71.75;100802.87;1771457;79;21683;-70
2022/09/10 11:07:38;;;;;;;6.93;5.80;;;;;;;13.26;71.81;100802.07;1766028;80;21297;-71
2022/09/10 11:10:28;;;;;;;7.67;6.50;;;;;;;13.32;71.95;100794.80;1766715;80;21303;-71
2022/09/10 11:13:22;;;;;;;8.07;6.63;;;;;;;13.42;71.98;100795.33;1750511;81;21872;-71
2022/09/10 11:16:09;;;;;;;9.00;7.10;;;;;;;13.45;71.92;100793.45;1735634;80;21304;-71
2022/09/10 11:18:50;;;;;;;9.23;7.00;;;;;;;13.48;71.81;100785.66;1708402;82;21292;-72
2022/09/10 11:21:51;;;;;;;8.03;6.70;;;;;;;13.49;71.78;100784.61;1711387;82;21132;-72
2022/09/10 11:24:35;;;;;;;;;;;;;;;13.52;71.75;100784.08;1705810;83;21158;-72
2022/09/10 11:27:24;;;;;;;8.30;7.10;;;;;;;13.60;71.79;100781.37;1706590;83;21122;-72
2022/09/10 11:30:14;;;;;;;7.63;6.77;;;;;;;13.67;71.73;100775.72;1704723;83;21039;-72
2022/09/10 11:32:49;;;;;;;7.80;7.00;;;;;;;13.72;71.68;100773.83;1759857;80;21220;-71
2022/09/10 11:35:30;;;;;;;9.00;7.27;;;;;;;13.75;71.54;100772.46;1771345;80;21284;-71
2022/09/10 11:38:12;;;;;;;8.25;7.33;;;;;;;13.73;71.46;100769.27;1762894;80;21332;-71
2022/09/10 11:41:21;;;;;;;7.67;6.40;;;;;;;13.72;71.35;100767.12;1762366;80;21131;-70
2022/09/10 11:44:02;;;;;;;9.43;7.37;;;;;;;13.73;71.35;100762.01;1766829;80;21262;-71
2022/09/10 11:46:40;;;;;;;7.72;6.83;;;;;;;13.74;71.30;100753.41;1764339;80;21196;-71
2022/09/10 11:49:11;;;;;;;8.20;7.07;;;;;;;13.73;71.39;100751.27;1769724;80;21029;-71
2022/09/10 11:51:38;;;;;;;8.30;7.47;;;;;;;13.72;71.49;100749.67;1772288;80;21349;-69
2022/09/10 11:54:09;;;;;;;10.23;8.03;;;;;;;13.73;71.60;100741.87;1771052;80;21104;-70
2022/09/10 11:57:05;;;;;;;9.58;8.35;;;;;;;13.75;71.67;100742.93;1782560;80;21263;-71
2022/09/10 12:00:17;;;;;;;9.13;7.73;;;;;;;13.76;71.75;100737.30;1775521;80;20943;-71
2022/09/10 12:03:17;;;;;;;8.55;7.47;;;;;;;13.79;71.76;100744.81;1766688;80;21275;-71
2022/09/10 12:06:07;;;;;;;8.47;7.07;;;;;;;13.80;71.73;100741.05;1737953;80;21553;-70
2022/09/10 12:08:51;;;;;;;9.20;8.20;;;;;;;13.80;71.73;100734.33;1755160;80;21336;-70
2022/09/10 12:11:41;;;;;;;9.47;8.23;;;;;;;13.79;71.72;100726.56;1717700;82;21289;-69
2022/09/10 12:14:14;;;;;;;10.88;9.18;;;;;;;13.73;71.83;100724.42;1724429;82;21311;-70
2022/09/10 12:17:05;;;;;;;9.80;8.80;;;;;;;13.71;72.00;100720.41;1770950;80;20967;-69
2022/09/10 12:19:45;;;;;;;11.03;9.43;;;;;;;13.71;72.15;100717.17;1784910;80;21162;-70
2022/09/10 12:22:20;;;;;;;10.57;9.13;;;;;;;13.65;72.39;100707.53;1764249;80;21592;-70
2022/09/10 12:25:20;;;;;;;11.00;9.90;;;;;;;13.67;72.58;100704.05;1768246;80;21085;-72
2022/09/10 12:27:55;;;;;;;12.37;10.97;;;;;;;13.75;72.76;100704.01;1769721;80;21351;-70
2022/09/10 12:30:34;;;;;;;12.63;11.33;;;;;;;13.75;72.73;100698.09;1764315;80;21350;-72
2022/09/10 12:33:18;;;;;;;13.67;11.70;;;;;;;13.77;72.80;100686.55;1773406;80;21219;-71
2022/09/10 12:35:48;;;;;;;13.90;11.90;;;;;;;13.78;72.81;100690.84;1784815;80;21213;-71
2022/09/10 12:39:09;;;;;;;13.80;10.90;;;;;;;13.85;72.80;100697.25;1782450;80;21096;-71
2022/09/10 12:41:41;;;;;;;14.17;11.10;;;;;;;13.91;72.79;100697.50;1749405;82;21292;-71
2022/09/10 12:44:34;;;;;;;14.07;11.23;;;;;;;13.92;72.58;100696.95;1750529;82;21782;-71
2022/09/10 12:47:38;;;;;;;13.27;11.53;;;;;;;13.91;72.52;100694.81;1750589;82;21132;-72
2022/09/10 12:50:31;;;;;;;15.27;12.53;;;;;;;13.92;72.52;100685.70;1750482;82;21294;-72
2022/09/10 12:53:18;;;;;;;14.33;12.83;;;;;;;13.91;72.62;100691.33;1750090;81;21445;-71
2022/09/10 12:56:01;;;;;;;15.10;13.13;;;;;;;13.92;72.64;100692.92;1745478;81;21171;-73
2022/09/10 12:58:39;;;;;;;;;;;;;;;13.91;72.65;100683.27;1753324;82;21264;-70
2022/09/10 13:01:38;;;;;;;13.17;11.33;;;;;;;13.90;72.69;100688.39;1750756;82;20133;-70
2022/09/10 13:04:05;;;;;;;16.27;13.53;;;;;;;13.92;72.83;100683.53;1749448;81;21088;-70
2022/09/10 13:06:37;;;;;;;15.17;13.23;;;;;;;13.91;72.95;100680.05;1750557;82;21213;-70
2022/09/10 13:09:06;;;;;;;14.47;12.93;;;;;;;13.92;72.99;100672.78;1711034;82;21322;-70
2022/09/10 13:11:33;;;;;;;14.57;12.10;;;;;;;13.90;73.07;100670.39;1702890;83;21251;-71
2022/09/10 13:14:04;;;;;;;14.33;12.83;;;;;;;13.92;73.17;100663.39;1784607;80;21772;-71
2022/09/10 13:16:37;;;;;;;14.47;12.95;;;;;;;13.94;73.31;100651.84;1772514;80;21137;-71
2022/09/10 13:19:18;;;;;;;15.77;13.90;;;;;;;13.94;73.39;100650.50;1709456;82;21471;-71
2022/09/10 13:21:52;;;;;;;14.25;12.75;;;;;;;13.96;73.47;100648.35;1711797;82;23927;-69
2022/09/10 13:24:37;;;;;;;14.17;12.33;;;;;;;13.98;73.65;100638.13;1704818;83;20981;-70
2022/09/10 13:27:31;;;;;;;15.87;13.17;;;;;;;13.99;73.72;100637.86;1763494;80;22031;-71
2022/09/10 13:30:21;;;;;;;13.53;12.13;;;;;;;14.02;73.83;100641.88;1766493;80;21198;-71
2022/09/10 13:33:00;;;;;;;15.60;12.87;;;;;;;14.06;73.97;100642.38;1768101;80;21249;-71
2022/09/10 13:36:01;;;;;;;13.50;11.90;;;;;;;14.09;74.12;100626.25;1747619;80;21293;-69
2022/09/10 13:38:46;;;;;;;14.87;13.27;;;;;;;14.17;74.21;100618.13;1754087;80;21292;-70
2022/09/10 13:41:58;;;;;;;14.67;13.13;;;;;;;14.23;74.24;100616.47;1709892;82;21986;-70
2022/09/10 13:44:41;;;;;;;;;;;;;;;14.25;74.32;100612.98;1713286;82;21279;-69
2022/09/10 13:47:15;;;;;;;14.63;13.13;;;;;;;14.31;74.34;100603.80;1694535;83;20167;-70
2022/09/10 13:50:14;;;;;;;13.60;11.73;;;;;;;14.33;74.31;100605.40;1696672;84;21257;-71
2022/09/10 13:52:44;;;;;;;13.70;12.17;;;;;;;14.36;74.29;100604.30;1703961;83;21782;-70
2022/09/10 13:55:19;;;;;;;13.13;11.80;;;;;;;14.38;74.31;100602.66;1771034;80;21356;-69
2022/09/10 13:57:49;;;;;;;12.70;11.00;;;;;;;14.41;74.28;100598.06;1765844;80;21920;-69
2022/09/10 14:00:26;;;;;;;11.57;10.47;;;;;;;14.43;74.28;100603.42;1772557;80;21430;-69
2022/09/10 14:02:57;;;;;;;12.20;9.87;;;;;;;14.50;74.24;100601.76;1771228;80;21753;-71
2022/09/10 14:06:00;;;;;;;12.47;11.10;;;;;;;14.54;74.16;100592.07;1750435;81;21688;-71
2022/09/10 14:08:52;;;;;;;12.17;10.73;;;;;;;14.58;74.10;100593.65;1712118;83;21046;-70
2022/09/10 14:11:28;;;;;;;11.93;10.67;;;;;;;14.59;74.08;100589.35;1656582;82;21318;-70
2022/09/10 14:14:08;;;;;;;11.13;10.03;;;;;;;14.57;74.11;100586.13;1683444;85;21205;-71
2022/09/10 14:16:46;;;;;;;11.80;10.17;;;;;;;14.60;74.16;100582.08;1643695;85;21404;-71
2022/09/10 14:19:38;;;;;;;13.47;10.47;;;;;;;14.58;74.13;100583.73;1706550;83;22452;-71
2022/09/10 14:22:24;;;;;;;12.47;9.60;;;;;;;14.58;74.09;100573.48;1776439;80;21253;-72
2022/09/10 14:24:55;;;;;;;11.67;10.47;;;;;;;14.57;74.09;100571.89;1764288;80;21270;-71
2022/09/10 14:27:40;;;;;;;12.40;10.97;;;;;;;14.60;74.14;100572.13;1771459;80;21361;-71
2022/09/10 14:30:30;;;;;;;11.47;10.13;;;;;;;14.62;74.04;100564.59;1770552;80;21381;-71
2022/09/10 14:33:34;;;;;;;11.10;10.00;;;;;;;14.61;73.88;100567.03;1768581;80;21758;-70
2022/09/10 14:36:32;;;;;;;12.53;10.57;;;;;;;14.62;73.77;100568.63;1770697;80;21255;-71
2022/09/10 14:39:15;;;;;;;9.47;8.13;;;;;;;14.61;73.68;100562.17;1771996;80;21525;-71
2022/09/10 14:41:42;;;;;;;10.50;9.40;;;;;;;14.61;73.59;100563.00;1771755;80;21892;-70
2022/09/10 14:44:28;;;;;;;9.70;8.70;;;;;;;14.57;73.41;100561.14;1767416;80;21118;-71
2022/09/10 14:47:11;;;;;;;11.33;9.67;;;;;;;14.57;73.38;100554.42;1771401;80;21757;-70
2022/09/10 14:49:45;;;;;;;11.57;9.00;;;;;;;14.52;73.16;100552.05;1769035;80;21968;-70
2022/09/10 14:52:08;;;;;;;10.27;9.07;;;;;;;14.50;73.11;100538.59;1770863;80;21291;-70
2022/09/10 14:54:35;;;;;;;10.53;9.10;;;;;;;14.45;73.04;100533.29;1724559;80;21281;-70